Main page
METAR-TAF:

METAR-TAF

Airports :

Draughon–Miller Central Texas Regional Airport

Temple, Texas, United States

latitude: 31-09N, longitude: 097-24W, elevation: 682 ft

Current weather observation

The report was made 15 minutes ago, at 22:51 UTC
Wind 8 mph from the West
Temperature 72°F
Humidity 21%
Pressure 29.75 in. Hg
Visibility: 10 miles
Clear sky

METAR: KTPL 252251Z AUTO 26007KT 10SM CLR 22/M01 A2975 RMK AO2 SLP063 T02171011

Time: 17:06 (23:06 UTC)


TAF: missing

Weather observations and forecasts of more than 4000 airports (METAR and TAF reports).

The available stations are represented by yellow and red dots on the map.

Hover mouse over dot to see the name of the station.

Then click to see weather observations and forecasts.

To change the map : click on the green buttons with a black cross to zoom in, on the green button with a dash to zoom out, or on the green arrows for adjacent maps.


METAR-TAF: